Time;durP1;ratioP1;P1;durP2;ratioP2;P2;SDS_P1;SDS_P2;PMS_P1;PMS_P2;Temp;Humidity;BMP_temperature;BMP_pressure;BME280_temperature;BME280_humidity;BME280_pressure;Samples;Min_cycle;Max_cycle;Signal;HPM_P1;HPM_P2
2022/04/12 00:01:46;;;;;;;14.80;5.60;;;;;;;;;;5054366;28;20094;-60
2022/04/12 00:04:13;;;;;;;14.10;5.50;;;;;;;;;;5054748;28;20064;-62
2022/04/12 00:06:39;;;;;;;16.35;6.10;;;;;;;;;;5055728;28;20076;-61
2022/04/12 00:09:05;;;;;;;11.15;5.05;;;;;;;;;;5055411;28;20049;-62
2022/04/12 00:11:31;;;;;;;13.30;6.20;;;;;;;;;;5053977;28;20591;-62
2022/04/12 00:13:57;;;;;;;14.10;6.07;;;;;;;;;;5054650;28;20137;-61
2022/04/12 00:16:23;;;;;;;14.60;5.72;;;;;;;;;;5054997;28;20493;-61
2022/04/12 00:19:04;;;;;;;14.95;6.38;;;;;;;;;;5055121;28;20052;-61
2022/04/12 00:21:34;;;;;;;13.68;6.03;;;;;;;;;;5056106;28;20048;-62
2022/04/12 00:24:02;;;;;;;13.60;5.80;;;;;;;;;;5037933;28;20132;-61
2022/04/12 00:26:28;;;;;;;12.70;6.22;;;;;;;;;;5055206;28;20151;-61
2022/04/12 00:28:54;;;;;;;14.32;6.32;;;;;;;;;;5055192;28;20183;-62
2022/04/12 00:31:20;;;;;;;13.68;6.10;;;;;;;;;;5055024;28;20132;-62
2022/04/12 00:33:46;;;;;;;12.90;5.93;;;;;;;;;;5054983;28;20056;-62
2022/04/12 00:36:12;;;;;;;13.25;6.30;;;;;;;;;;5054839;28;20052;-62
2022/04/12 00:38:38;;;;;;;14.27;5.93;;;;;;;;;;5054888;28;20142;-61
2022/04/12 00:41:05;;;;;;;13.85;6.68;;;;;;;;;;5054428;28;20386;-61
2022/04/12 00:43:33;;;;;;;14.55;7.07;;;;;;;;;;5054240;28;20151;-61
2022/04/12 00:46:00;;;;;;;16.42;6.88;;;;;;;;;;5053555;28;20161;-62
2022/04/12 00:48:30;;;;;;;12.38;6.05;;;;;;;;;;5053676;28;20504;-62
2022/04/12 00:50:57;;;;;;;14.63;6.40;;;;;;;;;;5053966;28;20076;-62
2022/04/12 00:53:23;;;;;;;14.20;6.20;;;;;;;;;;5054531;28;20041;-63
2022/04/12 00:55:51;;;;;;;;;;;;;;;;;;5054939;28;20048;-62
2022/04/12 00:58:17;;;;;;;17.00;6.70;;;;;;;;;;5054168;28;20301;-62
2022/04/12 01:00:43;;;;;;;;;;;;;;;;;;5054924;28;20091;-61
2022/04/12 01:03:10;;;;;;;13.52;6.82;;;;;;;;;;5054189;28;19974;-62
2022/04/12 01:05:37;;;;;;;16.30;6.78;;;;;;;;;;5054397;28;20068;-61
2022/04/12 01:08:03;;;;;;;16.50;6.97;;;;;;;;;;5053828;28;20366;-62
2022/04/12 01:10:31;;;;;;;15.73;6.75;;;;;;;;;;5054710;28;20037;-63
2022/04/12 01:12:58;;;;;;;15.20;6.78;;;;;;;;;;5052990;28;20098;-62
2022/04/12 01:15:24;;;;;;;14.32;6.93;;;;;;;;;;5053020;28;20087;-62
2022/04/12 01:17:51;;;;;;;16.77;7.50;;;;;;;;;;5054133;28;20048;-62
2022/04/12 01:20:18;;;;;;;15.68;7.35;;;;;;;;;;5054495;28;20385;-62
2022/04/12 01:22:47;;;;;;;14.95;7.20;;;;;;;;;;5054550;28;20049;-62
2022/04/12 01:25:13;;;;;;;14.90;7.05;;;;;;;;;;5053991;28;20138;-63
2022/04/12 01:27:39;;;;;;;17.83;7.20;;;;;;;;;;5054068;28;20041;-62
2022/04/12 01:30:06;;;;;;;15.07;6.53;;;;;;;;;;5053831;28;20041;-62
2022/04/12 01:32:32;;;;;;;;;;;;;;;;;;5054924;28;20045;-61
2022/04/12 01:34:58;;;;;;;17.15;7.60;;;;;;;;;;5053744;28;19921;-61
2022/04/12 01:37:25;;;;;;;16.08;7.60;;;;;;;;;;5053018;28;20121;-61
2022/04/12 01:39:51;;;;;;;15.15;7.38;;;;;;;;;;5052539;28;20049;-62
2022/04/12 01:42:17;;;;;;;16.48;7.50;;;;;;;;;;5052584;28;20049;-61
2022/04/12 01:44:43;;;;;;;16.92;7.95;;;;;;;;;;5052555;28;20045;-61
2022/04/12 01:47:09;;;;;;;14.00;8.02;;;;;;;;;;5053510;28;20392;-61
2022/04/12 01:49:35;;;;;;;14.73;7.75;;;;;;;;;;5054287;28;20045;-62
2022/04/12 01:52:02;;;;;;;15.85;8.02;;;;;;;;;;5054141;28;20132;-61
2022/04/12 01:54:28;;;;;;;17.08;7.78;;;;;;;;;;5053428;28;20467;-62
2022/04/12 01:56:54;;;;;;;19.15;8.40;;;;;;;;;;5052700;28;20041;-61
2022/04/12 01:59:20;;;;;;;;;;;;;;;;;;5052494;28;20059;-61
2022/04/12 02:01:46;;;;;;;15.57;7.97;;;;;;;;;;5054233;28;19921;-61
2022/04/12 02:04:12;;;;;;;18.08;8.75;;;;;;;;;;5052412;28;20386;-61
2022/04/12 02:06:39;;;;;;;19.92;8.57;;;;;;;;;;5035923;28;20041;-62
2022/04/12 02:09:05;;;;;;;15.48;8.27;;;;;;;;;;5054135;28;20123;-62
2022/04/12 02:11:31;;;;;;;16.88;8.50;;;;;;;;;;5053287;28;20056;-61
2022/04/12 02:13:57;;;;;;;16.85;8.48;;;;;;;;;;5052425;28;20155;-62
2022/04/12 02:16:23;;;;;;;15.93;8.30;;;;;;;;;;5052481;28;20496;-61
2022/04/12 02:18:49;;;;;;;15.07;8.57;;;;;;;;;;5054050;28;20048;-61
2022/04/12 02:21:15;;;;;;;19.30;8.68;;;;;;;;;;5052488;28;20385;-61
2022/04/12 02:23:41;;;;;;;18.67;9.07;;;;;;;;;;5052785;28;20462;-61
2022/04/12 02:26:07;;;;;;;16.98;9.10;;;;;;;;;;5053247;28;20460;-62
2022/04/12 02:28:33;;;;;;;18.42;8.40;;;;;;;;;;5052846;28;20500;-62
2022/04/12 02:30:59;;;;;;;15.60;9.10;;;;;;;;;;5053903;28;20118;-62
2022/04/12 02:33:26;;;;;;;19.67;9.60;;;;;;;;;;5051854;28;20508;-61
2022/04/12 02:35:52;;;;;;;17.88;9.68;;;;;;;;;;5053157;28;20053;-61
2022/04/12 02:38:18;;;;;;;16.75;8.95;;;;;;;;;;5053025;28;20052;-61
2022/04/12 02:40:44;;;;;;;17.40;9.10;;;;;;;;;;5035486;28;20470;-61
2022/04/12 02:43:10;;;;;;;17.10;9.70;;;;;;;;;;5051870;28;20044;-61
2022/04/12 02:45:36;;;;;;;17.30;8.93;;;;;;;;;;5052971;28;20045;-62
2022/04/12 02:48:03;;;;;;;15.88;8.70;;;;;;;;;;5051881;28;20095;-62
2022/04/12 02:50:29;;;;;;;;;;;;;;;;;;5052807;28;20048;-60
2022/04/12 02:52:55;;;;;;;16.55;8.95;;;;;;;;;;5051771;28;20031;-61
2022/04/12 02:55:21;;;;;;;17.27;9.30;;;;;;;;;;5051727;28;20045;-61
2022/04/12 02:57:47;;;;;;;16.65;9.45;;;;;;;;;;5053454;28;20064;-61
2022/04/12 03:00:13;;;;;;;18.00;9.80;;;;;;;;;;5052251;28;20122;-62
2022/04/12 03:02:39;;;;;;;17.92;10.77;;;;;;;;;;5053160;28;20060;-62
2022/04/12 03:05:06;;;;;;;20.17;10.57;;;;;;;;;;5053637;28;20049;-61
2022/04/12 03:07:32;;;;;;;;;;;;;;;;;;5053463;28;20503;-61
2022/04/12 03:09:58;;;;;;;18.38;9.95;;;;;;;;;;5057009;28;19920;-61
2022/04/12 03:12:24;;;;;;;20.75;10.25;;;;;;;;;;5056485;28;20045;-61
2022/04/12 03:14:50;;;;;;;17.80;10.52;;;;;;;;;;5055528;28;20045;-61
2022/04/12 03:17:17;;;;;;;17.48;10.15;;;;;;;;;;5056452;28;20568;-61
2022/04/12 03:19:43;;;;;;;18.95;10.50;;;;;;;;;;5056079;28;20056;-61
2022/04/12 03:22:09;;;;;;;18.88;10.77;;;;;;;;;;5056353;28;20095;-61
2022/04/12 03:24:36;;;;;;;17.90;11.13;;;;;;;;;;5056274;28;20049;-61
2022/04/12 03:27:02;;;;;;;18.30;10.40;;;;;;;;;;5055027;28;20076;-60
2022/04/12 03:29:28;;;;;;;19.75;11.35;;;;;;;;;;5056100;28;20037;-61
2022/04/12 03:31:54;;;;;;;19.83;10.93;;;;;;;;;;5055503;28;20048;-61
2022/04/12 03:34:21;;;;;;;17.50;11.07;;;;;;;;;;5055057;28;20133;-61
2022/04/12 03:36:47;;;;;;;20.73;10.77;;;;;;;;;;5071306;28;20463;-62
2022/04/12 03:39:17;;;;;;;19.73;11.50;;;;;;;;;;5056030;28;20477;-61
2022/04/12 03:41:47;;;;;;;20.60;12.30;;;;;;;;;;5055871;28;20052;-62
2022/04/12 03:44:13;;;;;;;22.40;11.57;;;;;;;;;;5055252;28;20053;-61
2022/04/12 03:46:40;;;;;;;22.25;11.90;;;;;;;;;;5055130;28;20102;-61
2022/04/12 03:49:06;;;;;;;20.58;12.18;;;;;;;;;;5055537;28;20495;-61
2022/04/12 03:51:32;;;;;;;22.60;12.55;;;;;;;;;;5055349;28;20517;-62
2022/04/12 03:53:58;;;;;;;21.05;12.10;;;;;;;;;;5055731;28;20051;-62
2022/04/12 03:56:25;;;;;;;22.27;13.60;;;;;;;;;;5055773;28;20132;-62
2022/04/12 03:58:51;;;;;;;25.45;14.45;;;;;;;;;;5056098;28;20044;-60
2022/04/12 04:01:17;;;;;;;22.88;14.63;;;;;;;;;;5055925;28;20049;-61
2022/04/12 04:03:43;;;;;;;24.75;13.98;;;;;;;;;;5054043;28;20060;-61
2022/04/12 04:06:09;;;;;;;20.52;13.45;;;;;;;;;;5055607;28;20052;-61
2022/04/12 04:08:36;;;;;;;22.52;12.75;;;;;;;;;;5055378;28;20041;-62
2022/04/12 04:11:02;;;;;;;24.08;13.82;;;;;;;;;;5054180;28;20447;-61
2022/04/12 04:13:30;;;;;;;22.40;13.07;;;;;;;;;;5055348;28;20045;-61
2022/04/12 04:15:56;;;;;;;19.98;13.00;;;;;;;;;;5055869;28;20436;-61
2022/04/12 04:18:23;;;;;;;22.63;13.27;;;;;;;;;;5054721;28;20131;-61
2022/04/12 04:20:49;;;;;;;22.42;12.68;;;;;;;;;;5055264;28;20137;-61
2022/04/12 04:23:15;;;;;;;24.98;13.43;;;;;;;;;;5055987;28;20048;-61
2022/04/12 04:25:41;;;;;;;22.00;13.80;;;;;;;;;;5054162;28;20055;-60
2022/04/12 04:28:11;;;;;;;23.13;12.65;;;;;;;;;;5054842;28;20401;-62
2022/04/12 04:30:38;;;;;;;20.85;12.55;;;;;;;;;;5054914;28;20067;-61
2022/04/12 04:33:05;;;;;;;21.65;13.10;;;;;;;;;;5054021;28;20045;-61
2022/04/12 04:35:31;;;;;;;24.27;13.02;;;;;;;;;;5037141;28;20156;-61
2022/04/12 04:37:57;;;;;;;23.77;13.15;;;;;;;;;;5052892;28;20041;-62
2022/04/12 04:40:24;;;;;;;25.13;12.38;;;;;;;;;;5054466;28;20066;-60
2022/04/12 04:42:53;;;;;;;20.95;12.75;;;;;;;;;;5052802;28;20128;-60
2022/04/12 04:45:19;;;;;;;22.92;12.43;;;;;;;;;;5053822;28;20110;-61
2022/04/12 04:47:50;;;;;;;22.45;12.82;;;;;;;;;;5053619;28;20507;-61
2022/04/12 04:50:17;;;;;;;21.40;12.52;;;;;;;;;;5052404;28;20103;-61
2022/04/12 04:52:43;;;;;;;22.20;13.32;;;;;;;;;;5069187;28;20056;-61
2022/04/12 04:55:09;;;;;;;;;;;;;;;;;;5054087;28;20124;-61
2022/04/12 04:57:39;;;;;;;22.35;12.48;;;;;;;;;;5035623;28;19971;-61
2022/04/12 05:00:06;;;;;;;24.63;13.93;;;;;;;;;;5051735;28;20176;-61
2022/04/12 05:02:33;;;;;;;22.45;13.07;;;;;;;;;;5053455;28;20562;-62
2022/04/12 05:04:59;;;;;;;25.27;13.80;;;;;;;;;;5053780;28;20052;-62
2022/04/12 05:07:26;;;;;;;23.27;13.23;;;;;;;;;;5053948;28;20189;-62
2022/04/12 05:09:53;;;;;;;22.20;13.20;;;;;;;;;;5053303;28;20158;-62
2022/04/12 05:12:19;;;;;;;21.60;13.10;;;;;;;;;;5052738;28;20063;-61
2022/04/12 05:14:45;;;;;;;21.02;12.82;;;;;;;;;;5052841;28;20076;-61
2022/04/12 05:17:11;;;;;;;24.25;13.02;;;;;;;;;;5052862;28;20045;-61
2022/04/12 05:19:37;;;;;;;20.90;13.05;;;;;;;;;;5052704;28;20374;-62
2022/04/12 05:22:04;;;;;;;23.38;13.82;;;;;;;;;;5052815;28;20559;-62
2022/04/12 05:24:30;;;;;;;21.88;13.27;;;;;;;;;;5053277;28;20108;-61
2022/04/12 05:26:56;;;;;;;23.50;13.63;;;;;;;;;;5052713;28;20482;-62
2022/04/12 05:29:22;;;;;;;;;;;;;;;;;;5052962;28;20049;-62
2022/04/12 05:31:48;;;;;;;21.58;12.75;;;;;;;;;;5051966;28;20288;-61
2022/04/12 05:34:14;;;;;;;21.55;13.10;;;;;;;;;;5052451;28;20048;-61
2022/04/12 05:36:41;;;;;;;22.05;13.05;;;;;;;;;;5052484;28;20044;-60
2022/04/12 05:39:07;;;;;;;21.58;13.35;;;;;;;;;;5051091;28;20511;-61
2022/04/12 05:41:33;;;;;;;21.42;12.88;;;;;;;;;;5051468;28;20183;-61
2022/04/12 05:43:59;;;;;;;21.73;12.48;;;;;;;;;;5052363;28;20071;-61
2022/04/12 05:46:25;;;;;;;22.92;14.20;;;;;;;;;;5052365;28;20052;-61
2022/04/12 05:48:51;;;;;;;21.88;12.77;;;;;;;;;;5051093;28;20127;-61
2022/04/12 05:51:17;;;;;;;20.35;13.18;;;;;;;;;;5051298;28;20090;-61
2022/04/12 05:53:43;;;;;;;21.20;12.90;;;;;;;;;;5050697;28;20037;-61
2022/04/12 05:56:09;;;;;;;29.60;13.40;;;;;;;;;;5052468;28;20087;-61
2022/04/12 05:58:38;;;;;;;23.27;13.55;;;;;;;;;;5051795;28;20049;-62
2022/04/12 06:01:04;;;;;;;22.60;13.82;;;;;;;;;;5052395;28;20442;-61
2022/04/12 06:03:34;;;;;;;25.17;13.52;;;;;;;;;;5052094;28;20482;-62
2022/04/12 06:06:00;;;;;;;22.02;13.18;;;;;;;;;;5052451;28;20098;-61
2022/04/12 06:08:28;;;;;;;26.83;14.00;;;;;;;;;;5052737;28;20367;-61
2022/04/12 06:10:54;;;;;;;23.60;13.38;;;;;;;;;;5050533;28;20489;-61
2022/04/12 06:13:20;;;;;;;21.10;12.63;;;;;;;;;;5051064;28;20098;-62
2022/04/12 06:15:46;;;;;;;19.48;12.57;;;;;;;;;;5050816;28;20052;-61
2022/04/12 06:18:12;;;;;;;19.35;12.70;;;;;;;;;;5052039;28;20052;-63
2022/04/12 06:20:39;;;;;;;23.10;13.63;;;;;;;;;;5051859;28;20094;-60
2022/04/12 06:23:05;;;;;;;24.02;14.68;;;;;;;;;;5052646;28;20099;-61
2022/04/12 06:25:31;;;;;;;25.48;14.38;;;;;;;;;;5051952;28;20045;-60
2022/04/12 06:27:57;;;;;;;23.33;12.82;;;;;;;;;;5051816;28;20127;-61
2022/04/12 06:30:28;;;;;;;23.23;13.15;;;;;;;;;;5051983;28;20067;-62
2022/04/12 06:32:54;;;;;;;21.33;12.95;;;;;;;;;;5051579;28;20531;-61
2022/04/12 06:35:23;;;;;;;24.70;13.82;;;;;;;;;;5051894;28;20049;-63
2022/04/12 06:37:53;;;;;;;21.52;13.00;;;;;;;;;;5051581;28;20048;-62
2022/04/12 06:40:21;;;;;;;22.77;13.18;;;;;;;;;;5052623;28;20053;-61
2022/04/12 06:42:50;;;;;;;25.00;13.38;;;;;;;;;;5053251;28;20210;-63
2022/04/12 06:45:19;;;;;;;21.00;13.10;;;;;;;;;;5055364;28;20052;-62
2022/04/12 06:47:45;;;;;;;;;;;;;;;;;;5056530;28;20327;-60
2022/04/12 06:50:12;;;;;;;24.05;13.40;;;;;;;;;;5038348;28;19928;-61
2022/04/12 06:52:38;;;;;;;26.88;14.00;;;;;;;;;;5056550;28;20456;-61
2022/04/12 06:55:08;;;;;;;24.40;13.20;;;;;;;;;;5054236;28;20055;-61
2022/04/12 06:57:34;;;;;;;25.75;12.98;;;;;;;;;;5054238;28;20041;-62
2022/04/12 07:00:01;;;;;;;25.02;13.48;;;;;;;;;;5055427;28;20080;-63
2022/04/12 07:02:28;;;;;;;23.05;11.98;;;;;;;;;;5056158;28;20128;-61
2022/04/12 07:04:54;;;;;;;22.95;13.07;;;;;;;;;;5055063;28;20520;-61
2022/04/12 07:07:25;;;;;;;25.35;13.80;;;;;;;;;;5055179;28;20045;-62
2022/04/12 07:09:51;;;;;;;25.20;12.80;;;;;;;;;;5054690;28;20504;-65
2022/04/12 07:12:17;;;;;;;26.98;13.90;;;;;;;;;;5055087;28;20049;-64
2022/04/12 07:14:45;;;;;;;23.35;13.65;;;;;;;;;;5054187;28;20043;-62
2022/04/12 07:17:11;;;;;;;22.75;12.80;;;;;;;;;;5054063;28;20056;-65
2022/04/12 07:19:37;;;;;;;25.75;13.52;;;;;;;;;;5054862;28;20047;-67
2022/04/12 07:22:04;;;;;;;25.08;14.80;;;;;;;;;;5054843;28;20500;-64
2022/04/12 07:24:30;;;;;;;23.05;13.63;;;;;;;;;;5053854;28;20053;-66
2022/04/12 07:26:56;;;;;;;22.70;12.80;;;;;;;;;;5055083;28;20088;-66
2022/04/12 07:29:23;;;;;;;21.83;13.07;;;;;;;;;;5053258;28;20378;-66
2022/04/12 07:31:49;;;;;;;23.00;12.98;;;;;;;;;;5054281;28;20500;-65
2022/04/12 07:34:15;;;;;;;24.40;14.20;;;;;;;;;;5054702;28;20110;-67
2022/04/12 07:36:47;;;;;;;23.23;13.30;;;;;;;;;;5054248;28;20091;-64
2022/04/12 07:39:13;;;;;;;24.33;13.63;;;;;;;;;;5054566;28;20052;-66
2022/04/12 07:41:39;;;;;;;;;;;;;;;;;;5054860;28;20102;-63
2022/04/12 07:44:05;;;;;;;21.27;13.55;;;;;;;;;;5053965;28;19922;-67
2022/04/12 07:46:31;;;;;;;26.20;14.15;;;;;;;;;;5069735;28;20489;-67
2022/04/12 07:48:57;;;;;;;23.38;13.73;;;;;;;;;;5054331;28;20127;-67
2022/04/12 07:51:24;;;;;;;21.75;13.80;;;;;;;;;;5069833;28;20131;-64
2022/04/12 07:53:53;;;;;;;26.38;14.23;;;;;;;;;;5052705;28;20049;-63
2022/04/12 07:56:19;;;;;;;22.38;13.93;;;;;;;;;;5052968;28;20053;-63
2022/04/12 07:58:45;;;;;;;28.15;14.23;;;;;;;;;;5052285;28;20045;-65
2022/04/12 08:01:11;;;;;;;23.05;13.07;;;;;;;;;;5054250;28;20088;-66
2022/04/12 08:03:39;;;;;;;27.17;13.80;;;;;;;;;;5069744;28;20044;-65
2022/04/12 08:06:12;;;;;;;21.30;12.60;;;;;;;;;;5053948;28;20444;-65
2022/04/12 08:08:38;;;;;;;21.77;13.07;;;;;;;;;;5054406;28;20045;-63
2022/04/12 08:11:04;;;;;;;26.20;13.88;;;;;;;;;;5053537;28;20087;-66
2022/04/12 08:13:30;;;;;;;;;;;;;;;;;;5053377;28;20132;-67
2022/04/12 08:15:56;;;;;;;29.13;13.43;;;;;;;;;;5053365;28;19967;-66
2022/04/12 08:18:23;;;;;;;25.48;13.40;;;;;;;;;;5053532;28;20052;-66
2022/04/12 08:20:49;;;;;;;22.38;13.32;;;;;;;;;;5053227;28;20045;-67
2022/04/12 08:23:16;;;;;;;23.33;13.50;;;;;;;;;;5052313;28;20495;-65
2022/04/12 08:25:43;;;;;;;36.53;14.30;;;;;;;;;;5068969;28;20090;-64
2022/04/12 08:28:09;;;;;;;21.73;12.52;;;;;;;;;;5036108;28;20132;-66
2022/04/12 08:30:36;;;;;;;22.13;12.57;;;;;;;;;;5053672;28;20067;-66
2022/04/12 08:33:03;;;;;;;21.98;12.52;;;;;;;;;;5052995;28;20609;-66
2022/04/12 08:35:29;;;;;;;34.17;13.30;;;;;;;;;;5053471;28;20531;-65
2022/04/12 08:37:55;;;;;;;37.30;13.35;;;;;;;;;;5051705;28;20128;-67
2022/04/12 08:40:21;;;;;;;33.53;13.43;;;;;;;;;;5054026;28;20055;-64
2022/04/12 08:42:48;;;;;;;23.58;12.95;;;;;;;;;;5054769;28;20045;-65
2022/04/12 08:45:13;;;;;;;;;;;;;;;;;;5052290;28;20040;-64
2022/04/12 08:47:43;;;;;;;22.42;11.60;;;;;;;;;;5053140;28;19971;-66
2022/04/12 08:50:10;;;;;;;23.80;12.80;;;;;;;;;;5053948;28;20132;-65
2022/04/12 08:52:36;;;;;;;23.00;13.15;;;;;;;;;;5052370;28;20053;-67
2022/04/12 08:55:02;;;;;;;;;;;;;;;;;;5053365;28;20051;-66
2022/04/12 08:57:31;;;;;;;23.70;12.73;;;;;;;;;;5053010;28;19943;-65
2022/04/12 08:59:58;;;;;;;24.90;13.25;;;;;;;;;;5052748;28;20099;-65
2022/04/12 09:02:24;;;;;;;29.15;13.68;;;;;;;;;;5051543;28;20060;-63
2022/04/12 09:04:50;;;;;;;24.55;12.43;;;;;;;;;;5052436;28;20466;-62
2022/04/12 09:07:17;;;;;;;36.83;12.85;;;;;;;;;;5053105;28;20052;-62
2022/04/12 09:09:44;;;;;;;22.38;12.70;;;;;;;;;;5052231;28;20102;-65
2022/04/12 09:12:11;;;;;;;23.25;12.25;;;;;;;;;;5068055;28;20049;-64
2022/04/12 09:14:41;;;;;;;23.85;12.57;;;;;;;;;;5053546;28;20400;-65
2022/04/12 09:17:09;;;;;;;23.88;12.32;;;;;;;;;;5052521;28;20056;-66
2022/04/12 09:19:49;;;;;;;21.42;12.32;;;;;;;;;;5053225;28;20037;-66
2022/04/12 09:22:19;;;;;;;23.10;12.68;;;;;;;;;;5053308;28;20064;-64
2022/04/12 09:24:49;;;;;;;23.52;12.95;;;;;;;;;;5053124;28;20099;-66
2022/04/12 09:27:16;;;;;;;24.73;11.82;;;;;;;;;;5052353;28;20060;-69
2022/04/12 09:29:50;;;;;;;25.60;12.63;;;;;;;;;;5052296;28;20127;-67
2022/04/12 09:32:19;;;;;;;21.42;12.05;;;;;;;;;;5051289;28;20067;-66
2022/04/12 09:34:45;;;;;;;20.05;12.10;;;;;;;;;;5052123;28;20060;-65
2022/04/12 09:37:11;;;;;;;;;;;;;;;;;;5052582;28;20173;-64
2022/04/12 09:39:37;;;;;;;23.23;12.75;;;;;;;;;;5052414;28;20273;-63
2022/04/12 09:42:03;;;;;;;26.10;12.95;;;;;;;;;;5052395;28;20056;-63
2022/04/12 09:44:29;;;;;;;21.67;12.23;;;;;;;;;;5051675;28;20107;-66
2022/04/12 09:46:57;;;;;;;23.52;12.25;;;;;;;;;;5051887;28;20091;-67
2022/04/12 09:49:24;;;;;;;21.77;11.85;;;;;;;;;;5051677;28;20572;-64
2022/04/12 09:51:50;;;;;;;;;;;;;;;;;;5052542;28;20440;-64
2022/04/12 09:54:22;;;;;;;32.05;13.73;;;;;;;;;;5052701;28;19925;-68
2022/04/12 09:56:49;;;;;;;26.25;12.27;;;;;;;;;;5052665;28;20128;-64
2022/04/12 09:59:15;;;;;;;20.20;12.38;;;;;;;;;;5051046;28;20079;-65
2022/04/12 10:01:41;;;;;;;26.15;12.40;;;;;;;;;;5052378;28;20061;-64
2022/04/12 10:04:09;;;;;;;20.35;11.15;;;;;;;;;;5051975;28;20550;-62
2022/04/12 10:06:38;;;;;;;21.02;12.07;;;;;;;;;;5051830;28;20049;-65
2022/04/12 10:09:07;;;;;;;23.33;12.40;;;;;;;;;;5051352;28;20132;-64
2022/04/12 10:11:33;;;;;;;20.75;10.95;;;;;;;;;;5050763;28;20057;-65
2022/04/12 10:14:02;;;;;;;23.10;12.00;;;;;;;;;;5051887;28;20124;-67
2022/04/12 10:16:30;;;;;;;20.60;11.95;;;;;;;;;;5051021;28;20040;-64
2022/04/12 10:18:56;;;;;;;31.27;12.65;;;;;;;;;;5051817;28;20138;-62
2022/04/12 10:21:22;;;;;;;20.30;11.27;;;;;;;;;;5052394;28;20045;-67
2022/04/12 10:23:48;;;;;;;;;;;;;;;;;;5052284;28;20049;-65
2022/04/12 10:26:19;;;;;;;25.05;12.75;;;;;;;;;;5051855;28;20414;-63
2022/04/12 10:28:45;;;;;;;21.88;12.02;;;;;;;;;;5052410;28;20106;-61
2022/04/12 10:31:13;;;;;;;23.52;13.02;;;;;;;;;;5052153;28;20038;-65
2022/04/12 10:33:40;;;;;;;21.35;12.55;;;;;;;;;;5051587;28;20049;-64
2022/04/12 10:36:07;;;;;;;20.98;11.98;;;;;;;;;;5050697;28;20044;-65
2022/04/12 10:38:44;;;;;;;27.05;12.20;;;;;;;;;;5052021;28;20105;-68
2022/04/12 10:41:13;;;;;;;40.45;12.30;;;;;;;;;;5051927;28;20384;-62
2022/04/12 10:43:39;;;;;;;23.17;12.90;;;;;;;;;;5050482;28;20600;-65
2022/04/12 10:46:06;;;;;;;25.00;11.88;;;;;;;;;;5051426;28;20506;-63
2022/04/12 10:48:36;;;;;;;21.98;11.65;;;;;;;;;;5051643;28;20088;-63
2022/04/12 10:51:03;;;;;;;20.48;11.93;;;;;;;;;;5051262;28;20081;-64
2022/04/12 10:53:53;;;;;;;20.98;12.00;;;;;;;;;;5050342;28;20121;-64
2022/04/12 10:56:23;;;;;;;20.85;11.32;;;;;;;;;;5052148;28;20206;-65
2022/04/12 10:58:49;;;;;;;24.48;11.95;;;;;;;;;;5051278;28;20041;-66
2022/04/12 11:01:27;;;;;;;22.17;11.93;;;;;;;;;;5049941;28;20061;-66
2022/04/12 11:03:54;;;;;;;22.75;11.75;;;;;;;;;;5051373;28;20045;-63
2022/04/12 11:06:24;;;;;;;20.48;11.23;;;;;;;;;;5051327;28;20132;-66
2022/04/12 11:08:54;;;;;;;20.83;11.80;;;;;;;;;;5051852;28;20555;-64
2022/04/12 11:11:28;;;;;;;21.48;12.52;;;;;;;;;;5051442;28;20041;-63
2022/04/12 11:13:55;;;;;;;21.48;11.95;;;;;;;;;;5051155;28;20532;-62
2022/04/12 11:16:25;;;;;;;25.50;13.40;;;;;;;;;;5051412;28;20481;-65
2022/04/12 11:18:51;;;;;;;21.80;13.00;;;;;;;;;;5050317;28;20550;-65
2022/04/12 11:21:19;;;;;;;24.17;11.25;;;;;;;;;;5051413;28;20048;-67
2022/04/12 11:23:51;;;;;;;20.02;12.45;;;;;;;;;;5052094;28;20493;-65
2022/04/12 11:26:36;;;;;;;20.40;12.32;;;;;;;;;;5051594;28;20060;-65
2022/04/12 11:29:06;;;;;;;22.02;12.23;;;;;;;;;;5052175;28;20060;-64
2022/04/12 11:31:36;;;;;;;22.23;12.95;;;;;;;;;;5053971;28;20045;-65
2022/04/12 11:34:02;;;;;;;28.58;12.20;;;;;;;;;;5054829;28;20048;-65
2022/04/12 11:36:28;;;;;;;;;;;;;;;;;;5053952;28;20060;-64
2022/04/12 11:38:56;;;;;;;22.92;11.10;;;;;;;;;;5054487;28;19920;-63
2022/04/12 11:41:22;;;;;;;18.00;10.77;;;;;;;;;;5054453;28;20048;-66
2022/04/12 11:43:48;;;;;;;22.23;11.50;;;;;;;;;;5053332;28;20436;-63
2022/04/12 11:46:17;;;;;;;22.67;12.10;;;;;;;;;;5053465;28;20071;-63
2022/04/12 11:48:43;;;;;;;19.23;10.75;;;;;;;;;;5054006;28;20390;-67
2022/04/12 11:51:09;;;;;;;21.17;11.52;;;;;;;;;;5036527;28;20052;-64
2022/04/12 11:53:35;;;;;;;;;;;;;;;;;;5070117;28;20048;-64
2022/04/12 11:56:03;;;;;;;24.55;12.60;;;;;;;;;;5053207;28;19933;-63
2022/04/12 11:58:30;;;;;;;22.95;12.88;;;;;;;;;;5053022;28;20467;-64
2022/04/12 12:00:56;;;;;;;26.55;12.48;;;;;;;;;;5054169;28;20067;-63
2022/04/12 12:03:23;;;;;;;23.00;12.98;;;;;;;;;;5054011;28;20056;-64
2022/04/12 12:05:49;;;;;;;20.30;11.95;;;;;;;;;;5054041;28;20053;-63
2022/04/12 12:08:20;;;;;;;22.98;12.65;;;;;;;;;;5053978;28;20045;-65
2022/04/12 12:10:52;;;;;;;20.95;11.73;;;;;;;;;;5055006;28;20048;-65
2022/04/12 12:13:18;;;;;;;21.92;12.65;;;;;;;;;;5053186;28;20049;-62
2022/04/12 12:15:46;;;;;;;20.60;12.57;;;;;;;;;;5053934;28;20053;-64
2022/04/12 12:18:15;;;;;;;24.02;12.60;;;;;;;;;;5052792;28;20056;-63
2022/04/12 12:20:41;;;;;;;23.58;13.05;;;;;;;;;;5052619;28;20045;-62
2022/04/12 12:23:07;;;;;;;;;;;;;;;;;;5052988;28;20061;-62
2022/04/12 12:25:44;;;;;;;22.17;13.30;;;;;;;;;;5053568;28;19948;-63
2022/04/12 12:28:28;;;;;;;21.63;12.85;;;;;;;;;;5053735;28;20048;-64
2022/04/12 12:31:02;;;;;;;25.30;13.32;;;;;;;;;;5052371;28;20048;-65
2022/04/12 12:33:37;;;;;;;22.20;12.75;;;;;;;;;;5052258;28;20350;-64
2022/04/12 12:36:04;;;;;;;23.98;12.93;;;;;;;;;;5052373;28;20507;-66
2022/04/12 12:38:30;;;;;;;24.52;12.88;;;;;;;;;;5053573;28;20429;-63
2022/04/12 12:40:59;;;;;;;18.38;11.23;;;;;;;;;;5052248;28;20389;-65
2022/04/12 12:43:26;;;;;;;27.35;12.05;;;;;;;;;;5052677;28;20154;-64
2022/04/12 12:45:52;;;;;;;21.95;11.90;;;;;;;;;;5068898;28;20447;-66
2022/04/12 12:48:19;;;;;;;22.75;11.77;;;;;;;;;;5052219;28;20484;-65
2022/04/12 12:50:46;;;;;;;22.98;11.70;;;;;;;;;;5052794;28;20053;-63
2022/04/12 12:53:13;;;;;;;41.90;13.95;;;;;;;;;;5052191;28;20045;-64
2022/04/12 12:55:40;;;;;;;23.02;11.45;;;;;;;;;;5035725;28;20041;-65
2022/04/12 12:58:08;;;;;;;21.38;11.55;;;;;;;;;;5052277;28;20504;-64
2022/04/12 13:00:35;;;;;;;21.15;12.00;;;;;;;;;;5068070;28;20053;-62
2022/04/12 13:03:03;;;;;;;32.13;12.40;;;;;;;;;;5053542;28;20061;-64
2022/04/12 13:05:29;;;;;;;28.00;12.40;;;;;;;;;;5051893;28;20053;-66
2022/04/12 13:08:01;;;;;;;21.83;12.18;;;;;;;;;;5053575;28;20049;-65
2022/04/12 13:10:29;;;;;;;21.92;12.20;;;;;;;;;;5052982;28;20045;-65
2022/04/12 13:12:55;;;;;;;23.63;11.50;;;;;;;;;;5053096;28;20400;-65
2022/04/12 13:15:21;;;;;;;23.60;11.27;;;;;;;;;;5052809;28;20041;-66
2022/04/12 13:17:48;;;;;;;22.33;11.80;;;;;;;;;;5052427;28;20052;-64
2022/04/12 13:20:14;;;;;;;;;;;;;;;;;;5052915;28;20160;-66
2022/04/12 13:22:40;;;;;;;29.27;13.77;;;;;;;;;;5052358;28;19978;-64
2022/04/12 13:25:06;;;;;;;63.72;18.30;;;;;;;;;;5052402;28;20060;-63
2022/04/12 13:27:36;;;;;;;24.13;12.35;;;;;;;;;;5052542;28;20052;-68
2022/04/12 13:30:03;;;;;;;27.02;13.30;;;;;;;;;;5052444;28;20209;-68
2022/04/12 13:32:29;;;;;;;23.63;12.38;;;;;;;;;;5052252;28;20045;-65
2022/04/12 13:34:56;;;;;;;53.78;16.85;;;;;;;;;;5068326;28;20045;-65
2022/04/12 13:37:22;;;;;;;26.27;12.50;;;;;;;;;;5052974;28;20049;-67
2022/04/12 13:39:51;;;;;;;;;;;;;;;;;;5053073;28;20040;-69
2022/04/12 13:42:17;;;;;;;34.92;14.15;;;;;;;;;;5052634;28;19944;-65
2022/04/12 13:44:43;;;;;;;;;;;;;;;;;;5052387;28;20135;-68
2022/04/12 13:47:09;;;;;;;26.63;13.57;;;;;;;;;;5052511;28;19967;-64
2022/04/12 13:49:45;;;;;;;25.92;13.18;;;;;;;;;;5050742;28;20041;-66
2022/04/12 13:52:11;;;;;;;25.15;14.40;;;;;;;;;;5052127;28;20045;-64
2022/04/12 13:54:37;;;;;;;26.25;14.00;;;;;;;;;;5052611;28;20084;-67
2022/04/12 13:57:03;;;;;;;;;;;;;;;;;;5052464;28;20178;-64
2022/04/12 13:59:29;;;;;;;25.15;12.55;;;;;;;;;;5052253;28;19928;-65
2022/04/12 14:01:55;;;;;;;;;;;;;;;;;;5050617;28;20053;-66
2022/04/12 14:04:22;;;;;;;26.98;14.20;;;;;;;;;;5052668;28;19994;-68
2022/04/12 14:06:51;;;;;;;25.95;13.45;;;;;;;;;;5052350;28;20064;-63
2022/04/12 14:09:18;;;;;;;28.27;13.18;;;;;;;;;;5052559;28;20045;-64
2022/04/12 14:11:44;;;;;;;26.73;13.07;;;;;;;;;;5052444;28;20122;-67
2022/04/12 14:14:14;;;;;;;;;;;;;;;;;;5052944;28;20147;-63
2022/04/12 14:16:41;;;;;;;26.20;12.52;;;;;;;;;;5052100;28;19920;-66
2022/04/12 14:19:08;;;;;;;26.98;12.82;;;;;;;;;;5050735;28;20338;-64
2022/04/12 14:21:35;;;;;;;27.33;13.32;;;;;;;;;;5034271;28;20068;-64
2022/04/12 14:24:01;;;;;;;39.67;14.23;;;;;;;;;;5052262;28;20104;-66
2022/04/12 14:26:27;;;;;;;25.63;13.25;;;;;;;;;;5067137;28;20075;-65
2022/04/12 14:28:53;;;;;;;24.35;12.95;;;;;;;;;;5051186;28;20358;-65